| time (UTC) | temp C | wind direction | speed KPH | gust KPH | rain 1hr cm | rain 24hr cm | rain mn cm | humidity % | barometer mb |
| 20260510091946 | 17 | 233 | 4.8 | 8.0 | 0.00 | 0.00 | 0.00 | 71 | 1009.8 |
| 20260510091445 | 17 | 143 | 4.8 | 11.3 | 0.00 | 0.00 | 0.00 | 72 | 1009.8 |
| 20260510090946 | 17 | 157 | 4.8 | 8.0 | 0.00 | 0.00 | 0.00 | 75 | 1009.8 |
| 20260510090446 | 17 | 269 | 9.7 | 12.9 | 0.00 | 0.00 | 0.00 | 76 | 1009.8 |
| 20260510085946 | 16 | 199 | 4.8 | 9.7 | 0.00 | 0.00 | 0.00 | 79 | 1009.8 |
| 20260510085447 | 16 | 165 | 0.0 | 4.8 | 0.00 | 0.00 | 0.00 | 79 | 1009.8 |
| 20260510084945 | 17 | 124 | 1.6 | 9.7 | 0.00 | 0.00 | 0.00 | 79 | 1009.8 |
| 20260510084445 | 16 | 209 | 3.2 | 9.7 | 0.00 | 0.00 | 0.00 | 80 | 1009.8 |
| 20260510083946 | 16 | 151 | 0.0 | 4.8 | 0.00 | 0.00 | 0.00 | 80 | 1009.8 |
| 20260510083446 | 17 | 177 | 4.8 | 4.8 | 0.00 | 0.00 | 0.00 | 79 | 1009.8 |
| 20260510082946 | 17 | 200 | 3.2 | 4.8 | 0.00 | 0.00 | 0.00 | 80 | 1009.8 |
| 20260510082446 | 16 | 140 | 0.0 | 8.0 | 0.00 | 0.00 | 0.00 | 82 | 1010.2 |
| 20260510081945 | 16 | 220 | 4.8 | 8.0 | 0.00 | 0.00 | 0.00 | 82 | 1010.2 |
| 20260510081445 | 16 | 230 | 4.8 | 8.0 | 0.00 | 0.00 | 0.00 | 84 | 1010.2 |
| 20260510080946 | 16 | 200 | 4.8 | 4.8 | 0.00 | 0.00 | 0.00 | 83 | 1010.2 |
| 20260510080445 | 16 | 148 | 3.2 | 4.8 | 0.00 | 0.00 | 0.00 | 84 | 1010.2 |
| 20260510075945 | 15 | 95 | 3.2 | 4.8 | 0.00 | 0.00 | 0.00 | 86 | 1010.2 |
| 20260510075446 | 15 | 146 | 4.8 | 8.0 | 0.00 | 0.00 | 0.00 | 84 | 1010.2 |
| 20260510074945 | 15 | 123 | 1.6 | 4.8 | 0.00 | 0.00 | 0.00 | 84 | 1010.2 |
| 20260510074445 | 15 | 133 | 1.6 | 3.2 | 0.00 | 0.00 | 0.00 | 86 | 1010.2 |
| 20260510073946 | 15 | 149 | 4.8 | 4.8 | 0.00 | 0.00 | 0.00 | 85 | 1010.2 |
| 20260510073446 | 15 | 134 | 3.2 | 4.8 | 0.00 | 0.00 | 0.00 | 83 | 1010.2 |
| 20260510072946 | 15 | 123 | 0.0 | 3.2 | 0.00 | 0.00 | 0.00 | 83 | 1009.8 |
| 20260510072446 | 16 | 194 | 1.6 | 1.6 | 0.00 | 0.00 | 0.00 | 82 | 1009.8 |
| 20260510071945 | 15 | 145 | 0.0 | 1.6 | 0.00 | 0.00 | 0.00 | 84 | 1009.8 |
| 20260510071445 | 15 | 144 | 0.0 | 0.0 | 0.00 | 0.00 | 0.00 | 86 | 1010.2 |
| 20260510070947 | 15 | 95 | 1.6 | 3.2 | 0.00 | 0.00 | 0.00 | 87 | 1009.8 |
| 20260510070446 | 14 | 112 | 1.6 | 1.6 | 0.00 | 0.00 | 0.00 | 87 | 1010.2 |
| 20260510065945 | 13 | 117 | 3.2 | 3.2 | 0.00 | 0.00 | 0.00 | 88 | 1010.2 |
| 20260510065445 | 13 | 104 | 1.6 | 3.2 | 0.00 | 0.00 | 0.00 | 88 | 1010.2 |
| 20260510064945 | 13 | 108 | 1.6 | 1.6 | 0.00 | 0.00 | 0.00 | 90 | 1009.8 |
| 20260510064445 | 13 | 105 | 1.6 | 1.6 | 0.00 | 0.00 | 0.00 | 91 | 1010.2 |
| 20260510063945 | 12 | 127 | 0.0 | 1.6 | 0.00 | 0.00 | 0.00 | 93 | 1010.2 |
| 20260510063446 | 12 | 85 | 1.6 | 4.8 | 0.00 | 0.00 | 0.00 | 93 | 1010.2 |
| 20260510062946 | 12 | 107 | 3.2 | 4.8 | 0.00 | 0.00 | 0.00 | 93 | 1010.2 |
| 20260510062445 | 12 | 117 | 0.0 | 3.2 | 0.00 | 0.00 | 0.00 | 95 | 1010.5 |
| 20260510061945 | 12 | 105 | 0.0 | 1.6 | 0.00 | 0.00 | 0.00 | 95 | 1010.2 |
| 20260510061446 | 12 | 133 | 0.0 | 0.0 | 0.00 | 0.00 | 0.00 | 97 | 1010.5 |
| 20260510060945 | 11 | 133 | 0.0 | 0.0 | 0.00 | 0.00 | 0.00 | 98 | 1010.5 |
| 20260510060445 | 10 | 128 | 0.0 | 1.6 | 0.00 | 0.00 | 0.00 | 99 | 1010.8 |
| 20260510055945 | 10 | 125 | 0.0 | 0.0 | 0.00 | 0.00 | 0.00 | 99 | 1010.5 |
| 20260510055445 | 10 | 108 | 1.6 | 3.2 | 0.00 | 0.00 | 0.00 | 99 | 1010.8 |
| 20260510054945 | 10 | 122 | 0.0 | 0.0 | 0.00 | 0.00 | 0.00 | 99 | 1010.5 |
| 20260510054446 | 11 | 125 | 0.0 | 0.0 | 0.00 | 0.00 | 0.00 | 99 | 1010.5 |
| 20260510053945 | 10 | 126 | 0.0 | 0.0 | 0.00 | 0.00 | 0.00 | 99 | 1010.5 |
| 20260510053447 | 9 | 126 | 0.0 | 0.0 | 0.00 | 0.00 | 0.00 | 99 | 1010.8 |
| 20260510052945 | 8 | 125 | 0.0 | 0.0 | 0.00 | 0.00 | 0.00 | 99 | 1010.8 |
| 20260510052446 | 8 | 109 | 0.0 | 1.6 | 0.00 | 0.00 | 0.00 | 99 | 1011.2 |
| 20260510051947 | 8 | 125 | 0.0 | 0.0 | 0.00 | 0.00 | 0.00 | 99 | 1010.8 |
| 20260510051445 | 8 | 125 | 0.0 | 0.0 | 0.00 | 0.00 | 0.00 | 99 | 1010.8 |
| 20260510050945 | 8 | 125 | 0.0 | 0.0 | 0.00 | 0.00 | 0.00 | 99 | 1010.8 |
| 20260510050446 | 8 | 125 | 0.0 | 0.0 | 0.00 | 0.00 | 0.00 | 99 | 1011.2 |
| 20260510045945 | 8 | 126 | 0.0 | 0.0 | 0.00 | 0.00 | 0.00 | 99 | 1010.8 |
| 20260510045445 | 8 | 126 | 0.0 | 0.0 | 0.00 | 0.00 | 0.00 | 99 | 1010.8 |
| 20260510044945 | 9 | 126 | 0.0 | 0.0 | 0.00 | 0.00 | 0.00 | 99 | 1010.8 |
| 20260510044446 | 9 | 126 | 0.0 | 0.0 | 0.00 | 0.00 | 0.00 | 99 | 1010.8 |
| 20260510043946 | 9 | 126 | 0.0 | 0.0 | 0.00 | 0.00 | 0.00 | 99 | 1010.8 |
| 20260510043446 | 9 | 126 | 0.0 | 0.0 | 0.00 | 0.00 | 0.00 | 99 | 1010.5 |
| 20260510042947 | 9 | 126 | 0.0 | 0.0 | 0.00 | 0.00 | 0.00 | 99 | 1010.8 |
| 20260510042445 | 9 | 125 | 0.0 | 0.0 | 0.00 | 0.00 | 0.00 | 99 | 1010.5 |
| 20260510041946 | 10 | 126 | 0.0 | 0.0 | 0.00 | 0.00 | 0.00 | 99 | 1010.8 |
| 20260510041446 | 9 | 126 | 0.0 | 0.0 | 0.00 | 0.00 | 0.00 | 99 | 1010.5 |
| 20260510040945 | 9 | 125 | 0.0 | 0.0 | 0.00 | 0.00 | 0.00 | 99 | 1010.8 |
| 20260510040446 | 9 | 125 | 0.0 | 0.0 | 0.00 | 0.00 | 0.00 | 99 | 1010.5 |
| 20260510035946 | 9 | 125 | 0.0 | 0.0 | 0.00 | 0.00 | 0.00 | 99 | 1010.5 |
| 20260510035446 | 10 | 127 | 0.0 | 0.0 | 0.00 | 0.00 | 0.00 | 99 | 1010.8 |
| 20260510034946 | 10 | 127 | 0.0 | 0.0 | 0.00 | 0.00 | 0.00 | 99 | 1010.8 |
| 20260510034449 | 10 | 127 | 0.0 | 0.0 | 0.00 | 0.00 | 0.00 | 99 | 1010.5 |
| 20260510033945 | 10 | 127 | 0.0 | 0.0 | 0.00 | 0.00 | 0.00 | 99 | 1010.5 |
| 20260510033446 | 10 | 126 | 0.0 | 0.0 | 0.00 | 0.00 | 0.00 | 99 | 1010.5 |
| 20260510032946 | 10 | 126 | 0.0 | 0.0 | 0.00 | 0.00 | 0.00 | 99 | 1010.5 |
| 20260510032445 | 10 | 126 | 0.0 | 0.0 | 0.00 | 0.00 | 0.00 | 99 | 1010.5 |
| 20260510031947 | 10 | 126 | 0.0 | 0.0 | 0.00 | 0.00 | 0.00 | 99 | 1010.8 |
| 20260510031445 | 10 | 126 | 0.0 | 0.0 | 0.00 | 0.00 | 0.00 | 99 | 1010.5 |
| 20260510030945 | 10 | 127 | 0.0 | 0.0 | 0.00 | 0.00 | 0.00 | 99 | 1010.5 |
| 20260510030447 | 10 | 127 | 0.0 | 0.0 | 0.00 | 0.00 | 0.00 | 99 | 1010.8 |
| 20260510025946 | 10 | 127 | 0.0 | 0.0 | 0.00 | 0.00 | 0.00 | 99 | 1010.8 |
| 20260510025445 | 10 | 127 | 0.0 | 0.0 | 0.00 | 0.00 | 0.00 | 99 | 1010.8 |
| 20260510024946 | 10 | 126 | 0.0 | 0.0 | 0.00 | 0.00 | 0.00 | 99 | 1010.8 |
| 20260510024445 | 10 | 127 | 0.0 | 0.0 | 0.00 | 0.00 | 0.00 | 99 | 1010.8 |
| 20260510023945 | 10 | 127 | 0.0 | 0.0 | 0.00 | 0.00 | 0.00 | 99 | 1010.8 |
| 20260510023446 | 10 | 126 | 0.0 | 0.0 | 0.00 | 0.00 | 0.00 | 99 | 1010.8 |
| 20260510022946 | 10 | 126 | 0.0 | 0.0 | 0.00 | 0.00 | 0.00 | 99 | 1010.8 |
| 20260510022446 | 10 | 126 | 0.0 | 0.0 | 0.00 | 0.00 | 0.00 | 99 | 1010.5 |
| 20260510021946 | 10 | 126 | 0.0 | 0.0 | 0.00 | 0.00 | 0.00 | 99 | 1010.8 |
| 20260510021446 | 10 | 126 | 0.0 | 0.0 | 0.00 | 0.00 | 0.00 | 99 | 1010.8 |
| 20260510020945 | 10 | 126 | 0.0 | 0.0 | 0.00 | 0.00 | 0.00 | 99 | 1010.8 |
| 20260510020447 | 10 | 127 | 0.0 | 0.0 | 0.00 | 0.00 | 0.00 | 99 | 1010.8 |
| 20260510015946 | 10 | 126 | 0.0 | 0.0 | 0.00 | 0.00 | 0.00 | 99 | 1010.8 |
| 20260510015445 | 10 | 127 | 0.0 | 0.0 | 0.00 | 0.00 | 0.00 | 99 | 1011.2 |
| 20260510014946 | 10 | 127 | 0.0 | 0.0 | 0.00 | 0.00 | 0.00 | 99 | 1011.2 |
| 20260510014445 | 10 | 127 | 0.0 | 0.0 | 0.00 | 0.00 | 0.00 | 99 | 1011.2 |
| 20260510013946 | 10 | 127 | 0.0 | 0.0 | 0.00 | 0.00 | 0.00 | 99 | 1011.2 |
| 20260510013445 | 9 | 127 | 0.0 | 0.0 | 0.00 | 0.00 | 0.00 | 99 | 1011.2 |
| 20260510012945 | 9 | 126 | 0.0 | 0.0 | 0.00 | 0.00 | 0.00 | 99 | 1011.2 |
| 20260510012446 | 9 | 127 | 0.0 | 0.0 | 0.00 | 0.00 | 0.00 | 99 | 1011.2 |
| 20260510011946 | 9 | 126 | 0.0 | 0.0 | 0.00 | 0.00 | 0.00 | 99 | 1011.2 |
| 20260510011446 | 8 | 125 | 0.0 | 0.0 | 0.00 | 0.00 | 0.00 | 99 | 1011.2 |
| 20260510010945 | 8 | 125 | 0.0 | 0.0 | 0.00 | 0.00 | 0.00 | 99 | 1011.2 |
| 20260510010445 | 8 | 125 | 0.0 | 0.0 | 0.00 | 0.00 | 0.00 | 99 | 1011.5 |
| 20260510005946 | 8 | 125 | 0.0 | 0.0 | 0.00 | 0.00 | 0.00 | 99 | 1011.5 |
| 20260510005445 | 8 | 125 | 0.0 | 0.0 | 0.00 | 0.00 | 0.00 | 99 | 1011.9 |
| 20260510004945 | 8 | 125 | 0.0 | 0.0 | 0.00 | 0.00 | 0.00 | 99 | 1011.9 |
| 20260510004446 | 8 | 125 | 0.0 | 0.0 | 0.00 | 0.00 | 0.00 | 99 | 1011.5 |
| 20260510003945 | 8 | 125 | 0.0 | 0.0 | 0.00 | 0.00 | 0.00 | 99 | 1011.9 |
| 20260510003445 | 8 | 124 | 0.0 | 0.0 | 0.00 | 0.00 | 0.00 | 99 | 1011.9 |
| 20260510002946 | 8 | 127 | 0.0 | 0.0 | 0.00 | 0.00 | 0.00 | 99 | 1011.9 |
| 20260510002446 | 8 | 127 | 0.0 | 0.0 | 0.00 | 0.00 | 0.00 | 99 | 1011.5 |
| 20260510001945 | 8 | 127 | 0.0 | 0.0 | 0.00 | 0.00 | 0.00 | 99 | 1011.5 |
| 20260510001446 | 8 | 126 | 0.0 | 0.0 | 0.00 | 0.00 | 0.00 | 99 | 1011.5 |
| 20260510000946 | 8 | 126 | 0.0 | 0.0 | 0.00 | 0.00 | 0.00 | 99 | 1011.5 |
| 20260510000448 | 8 | 126 | 0.0 | 0.0 | 0.00 | 0.00 | 0.00 | 99 | 1011.9 |
| 20260509235946 | 8 | 128 | 0.0 | 0.0 | 0.00 | 0.00 | 0.53 | 99 | 1011.9 |
| 20260509235446 | 8 | 128 | 0.0 | 0.0 | 0.00 | 0.00 | 0.53 | 99 | 1011.9 |
| 20260509234945 | 8 | 128 | 0.0 | 0.0 | 0.00 | 0.00 | 0.53 | 99 | 1011.9 |
| 20260509234445 | 8 | 128 | 0.0 | 0.0 | 0.00 | 0.00 | 0.53 | 99 | 1011.5 |
| 20260509233947 | 8 | 128 | 0.0 | 0.0 | 0.00 | 0.00 | 0.53 | 99 | 1011.9 |
| 20260509233445 | 9 | 128 | 0.0 | 0.0 | 0.00 | 0.00 | 0.53 | 99 | 1011.5 |
| 20260509232949 | 9 | 128 | 0.0 | 0.0 | 0.00 | 0.00 | 0.53 | 99 | 1011.9 |
| 20260509232445 | 9 | 128 | 0.0 | 0.0 | 0.00 | 0.00 | 0.53 | 99 | 1011.9 |
| 20260509231945 | 9 | 128 | 0.0 | 0.0 | 0.00 | 0.00 | 0.53 | 99 | 1011.9 |
| 20260509231445 | 9 | 128 | 0.0 | 0.0 | 0.00 | 0.00 | 0.53 | 99 | 1011.9 |
| 20260509230945 | 9 | 128 | 0.0 | 0.0 | 0.00 | 0.00 | 0.53 | 99 | 1011.9 |
| 20260509230445 | 10 | 128 | 0.0 | 0.0 | 0.00 | 0.00 | 0.53 | 99 | 1011.9 |
| 20260509225946 | 10 | 128 | 0.0 | 0.0 | 0.00 | 0.00 | 0.53 | 99 | 1011.5 |
| 20260509225445 | 10 | 129 | 0.0 | 0.0 | 0.00 | 0.00 | 0.53 | 99 | 1011.9 |
| 20260509224946 | 10 | 128 | 0.0 | 0.0 | 0.00 | 0.00 | 0.53 | 99 | 1011.9 |
| 20260509224446 | 10 | 129 | 0.0 | 0.0 | 0.00 | 0.00 | 0.53 | 99 | 1011.9 |
| 20260509223945 | 10 | 128 | 0.0 | 0.0 | 0.00 | 0.00 | 0.53 | 99 | 1011.9 |
| 20260509223445 | 10 | 123 | 0.0 | 1.6 | 0.00 | 0.00 | 0.53 | 98 | 1011.9 |
| 20260509222946 | 10 | 132 | 0.0 | 1.6 | 0.00 | 0.00 | 0.53 | 99 | 1011.9 |
| 20260509222445 | 10 | 130 | 0.0 | 0.0 | 0.00 | 0.00 | 0.53 | 98 | 1011.9 |
| 20260509221945 | 10 | 130 | 0.0 | 0.0 | 0.00 | 0.00 | 0.53 | 98 | 1012.2 |
| 20260509221446 | 10 | 130 | 0.0 | 0.0 | 0.00 | 0.00 | 0.53 | 98 | 1012.2 |
| 20260509220948 | 10 | 130 | 0.0 | 0.0 | 0.00 | 0.00 | 0.53 | 98 | 1012.5 |
| 20260509220445 | 10 | 130 | 0.0 | 0.0 | 0.00 | 0.00 | 0.53 | 98 | 1012.2 |
| 20260509215946 | 10 | 130 | 0.0 | 0.0 | 0.00 | 0.00 | 0.53 | 98 | 1012.5 |
| 20260509215150 | 10 | 129 | 0.0 | 0.0 | 0.00 | 0.00 | 0.53 | 98 | 1012.2 |
| 20260509214650 | 10 | 129 | 0.0 | 0.0 | 0.00 | 0.00 | 0.53 | 98 | 1012.2 |
| 20260509214150 | 10 | 127 | 0.0 | 0.0 | 0.00 | 0.00 | 0.53 | 98 | 1011.9 |
| 20260509213649 | 10 | 127 | 0.0 | 0.0 | 0.00 | 0.00 | 0.53 | 98 | 1011.9 |
| 20260509213149 | 10 | 127 | 0.0 | 0.0 | 0.00 | 0.00 | 0.53 | 98 | 1011.9 |
| 20260509212651 | 10 | 127 | 0.0 | 0.0 | 0.00 | 0.00 | 0.53 | 98 | 1011.9 |
| 20260509212149 | 10 | 127 | 0.0 | 0.0 | 0.00 | 0.00 | 0.53 | 98 | 1011.9 |
| 20260509211649 | 10 | 127 | 0.0 | 0.0 | 0.00 | 0.00 | 0.53 | 97 | 1011.9 |
| 20260509211149 | 10 | 127 | 0.0 | 0.0 | 0.00 | 0.00 | 0.53 | 97 | 1011.5 |
| 20260509210649 | 10 | 130 | 0.0 | 0.0 | 0.00 | 0.00 | 0.53 | 97 | 1011.9 |
| 20260509210151 | 10 | 130 | 0.0 | 0.0 | 0.00 | 0.00 | 0.53 | 97 | 1011.9 |
| 20260509205652 | 10 | 130 | 0.0 | 0.0 | 0.00 | 0.00 | 0.53 | 97 | 1011.5 |
| 20260509205149 | 11 | 130 | 0.0 | 0.0 | 0.00 | 0.00 | 0.53 | 97 | 1011.5 |
| 20260509204649 | 11 | 130 | 0.0 | 0.0 | 0.00 | 0.00 | 0.53 | 97 | 1011.2 |
| 20260509204151 | 11 | 130 | 0.0 | 0.0 | 0.00 | 0.00 | 0.53 | 97 | 1011.2 |
| 20260509203659 | 11 | 129 | 0.0 | 0.0 | 0.00 | 0.00 | 0.53 | 97 | 1011.2 |
| 20260509203150 | 11 | 128 | 0.0 | 0.0 | 0.00 | 0.00 | 0.53 | 97 | 1011.2 |
| 20260509202649 | 11 | 128 | 0.0 | 0.0 | 0.00 | 0.00 | 0.53 | 97 | 1011.5 |
| 20260509202149 | 11 | 128 | 0.0 | 0.0 | 0.00 | 0.00 | 0.53 | 97 | 1011.2 |
| 20260509201650 | 11 | 130 | 0.0 | 0.0 | 0.00 | 0.00 | 0.53 | 96 | 1011.2 |
| 20260509201149 | 11 | 131 | 0.0 | 0.0 | 0.00 | 0.00 | 0.53 | 96 | 1011.2 |
| 20260509200649 | 11 | 132 | 0.0 | 0.0 | 0.00 | 0.00 | 0.53 | 96 | 1011.2 |
| 20260509200149 | 11 | 133 | 0.0 | 0.0 | 0.00 | 0.00 | 0.53 | 96 | 1011.2 |
| 20260509195650 | 11 | 131 | 0.0 | 0.0 | 0.00 | 0.00 | 0.53 | 96 | 1010.8 |
| 20260509195149 | 11 | 134 | 0.0 | 0.0 | 0.00 | 0.00 | 0.53 | 96 | 1010.8 |
| 20260509194650 | 11 | 135 | 0.0 | 0.0 | 0.00 | 0.00 | 0.53 | 96 | 1010.8 |
| 20260509194149 | 11 | 135 | 0.0 | 0.0 | 0.00 | 0.00 | 0.53 | 95 | 1010.5 |